sensor_id;sensor_type;location;lat;lon;timestamp;pressure;altitude;pressure_sealevel;temperature;humidity
4449;BME280;2237;51.870;6.160;2023-08-20T00:00:15;101923.25;;;21.69;100.00
4449;BME280;2237;51.870;6.160;2023-08-20T00:02:43;101921.47;;;21.70;100.00
4449;BME280;2237;51.870;6.160;2023-08-20T00:05:12;101925.84;;;21.71;100.00
4449;BME280;2237;51.870;6.160;2023-08-20T00:07:39;101918.72;;;21.71;100.00
4449;BME280;2237;51.870;6.160;2023-08-20T00:10:06;101922.19;;;21.73;100.00
4449;BME280;2237;51.870;6.160;2023-08-20T00:12:33;101917.72;;;21.74;100.00
4449;BME280;2237;51.870;6.160;2023-08-20T00:15:03;101920.31;;;21.75;100.00
4449;BME280;2237;51.870;6.160;2023-08-20T00:17:34;101918.56;;;21.74;100.00
4449;BME280;2237;51.870;6.160;2023-08-20T00:20:02;101923.88;;;21.74;100.00
4449;BME280;2237;51.870;6.160;2023-08-20T00:22:36;101921.31;;;21.73;100.00
4449;BME280;2237;51.870;6.160;2023-08-20T00:25:02;101918.72;;;21.71;100.00
4449;BME280;2237;51.870;6.160;2023-08-20T00:27:30;101917.19;;;21.67;100.00
4449;BME280;2237;51.870;6.160;2023-08-20T00:29:57;101921.38;;;21.71;100.00
4449;BME280;2237;51.870;6.160;2023-08-20T00:32:23;101935.44;;;21.73;100.00
4449;BME280;2237;51.870;6.160;2023-08-20T00:34:50;101938.72;;;21.78;100.00
4449;BME280;2237;51.870;6.160;2023-08-20T00:37:16;101940.44;;;21.79;100.00
4449;BME280;2237;51.870;6.160;2023-08-20T00:39:43;101940.50;;;21.78;100.00
4449;BME280;2237;51.870;6.160;2023-08-20T00:42:09;101941.38;;;21.78;100.00
4449;BME280;2237;51.870;6.160;2023-08-20T00:44:36;101943.31;;;21.75;100.00
4449;BME280;2237;51.870;6.160;2023-08-20T00:47:04;101917.34;;;21.64;100.00
4449;BME280;2237;51.870;6.160;2023-08-20T00:49:31;101923.50;;;21.48;100.00
4449;BME280;2237;51.870;6.160;2023-08-20T00:51:58;101917.34;;;21.47;100.00
4449;BME280;2237;51.870;6.160;2023-08-20T00:54:27;101911.94;;;21.49;100.00
4449;BME280;2237;51.870;6.160;2023-08-20T00:56:54;101920.63;;;21.52;100.00
4449;BME280;2237;51.870;6.160;2023-08-20T00:59:21;101930.28;;;21.53;100.00
4449;BME280;2237;51.870;6.160;2023-08-20T01:01:48;101922.56;;;21.49;100.00
4449;BME280;2237;51.870;6.160;2023-08-20T01:04:14;101934.03;;;21.49;100.00
4449;BME280;2237;51.870;6.160;2023-08-20T01:10:07;101920.84;;;21.48;100.00
4449;BME280;2237;51.870;6.160;2023-08-20T01:12:34;101914.84;;;21.44;100.00
4449;BME280;2237;51.870;6.160;2023-08-20T01:15:02;101913.38;;;21.38;100.00
4449;BME280;2237;51.870;6.160;2023-08-20T01:17:28;101919.75;;;21.34;100.00
4449;BME280;2237;51.870;6.160;2023-08-20T01:19:55;101925.75;;;21.38;100.00
4449;BME280;2237;51.870;6.160;2023-08-20T01:28:30;101948.47;;;21.25;100.00
4449;BME280;2237;51.870;6.160;2023-08-20T01:30:58;101952.50;;;20.96;100.00
4449;BME280;2237;51.870;6.160;2023-08-20T01:33:25;101950.66;;;20.98;100.00
4449;BME280;2237;51.870;6.160;2023-08-20T01:35:53;101958.38;;;21.03;100.00
4449;BME280;2237;51.870;6.160;2023-08-20T01:38:20;101957.25;;;21.08;100.00
4449;BME280;2237;51.870;6.160;2023-08-20T01:40:47;101965.63;;;21.18;100.00
4449;BME280;2237;51.870;6.160;2023-08-20T01:43:14;101972.06;;;21.12;100.00
4449;BME280;2237;51.870;6.160;2023-08-20T01:45:41;101971.47;;;21.06;100.00
4449;BME280;2237;51.870;6.160;2023-08-20T01:48:08;101977.38;;;21.12;100.00
4449;BME280;2237;51.870;6.160;2023-08-20T01:50:35;101973.34;;;21.22;100.00
4449;BME280;2237;51.870;6.160;2023-08-20T01:53:02;101979.81;;;21.34;100.00
4449;BME280;2237;51.870;6.160;2023-08-20T01:55:29;101988.09;;;21.45;100.00
4449;BME280;2237;51.870;6.160;2023-08-20T01:57:58;101987.75;;;21.53;100.00
4449;BME280;2237;51.870;6.160;2023-08-20T02:00:24;101990.88;;;21.61;100.00
4449;BME280;2237;51.870;6.160;2023-08-20T02:02:51;101987.81;;;21.68;100.00
4449;BME280;2237;51.870;6.160;2023-08-20T02:05:17;101982.31;;;21.73;100.00
4449;BME280;2237;51.870;6.160;2023-08-20T02:07:44;101996.44;;;21.73;100.00
4449;BME280;2237;51.870;6.160;2023-08-20T02:10:10;102006.22;;;21.54;100.00
4449;BME280;2237;51.870;6.160;2023-08-20T02:12:37;102006.22;;;21.54;100.00
4449;BME280;2237;51.870;6.160;2023-08-20T02:15:06;101999.59;;;21.63;100.00
4449;BME280;2237;51.870;6.160;2023-08-20T02:17:32;101996.75;;;21.67;100.00
4449;BME280;2237;51.870;6.160;2023-08-20T02:20:02;101986.78;;;21.54;100.00
4449;BME280;2237;51.870;6.160;2023-08-20T02:22:30;101998.91;;;21.59;100.00
4449;BME280;2237;51.870;6.160;2023-08-20T02:24:56;101993.63;;;21.59;100.00
4449;BME280;2237;51.870;6.160;2023-08-20T02:27:23;101992.66;;;21.60;100.00
4449;BME280;2237;51.870;6.160;2023-08-20T02:29:49;101996.03;;;21.64;100.00
4449;BME280;2237;51.870;6.160;2023-08-20T02:32:15;101991.66;;;21.63;100.00
4449;BME280;2237;51.870;6.160;2023-08-20T02:34:43;101990.63;;;21.65;100.00
4449;BME280;2237;51.870;6.160;2023-08-20T02:37:09;101985.28;;;21.67;100.00
4449;BME280;2237;51.870;6.160;2023-08-20T02:39:36;101983.53;;;21.66;100.00
4449;BME280;2237;51.870;6.160;2023-08-20T02:42:03;101981.75;;;21.66;100.00
4449;BME280;2237;51.870;6.160;2023-08-20T02:44:29;101978.31;;;21.64;100.00
4449;BME280;2237;51.870;6.160;2023-08-20T02:46:55;101971.75;;;21.54;100.00
4449;BME280;2237;51.870;6.160;2023-08-20T02:49:22;101974.09;;;21.43;100.00
4449;BME280;2237;51.870;6.160;2023-08-20T02:51:48;101975.16;;;21.39;100.00
4449;BME280;2237;51.870;6.160;2023-08-20T02:54:14;101977.66;;;21.42;100.00
4449;BME280;2237;51.870;6.160;2023-08-20T02:56:41;101983.03;;;21.40;100.00
4449;BME280;2237;51.870;6.160;2023-08-20T02:59:08;101971.88;;;21.34;100.00
4449;BME280;2237;51.870;6.160;2023-08-20T03:01:34;101980.22;;;21.26;100.00
4449;BME280;2237;51.870;6.160;2023-08-20T03:04:01;101980.41;;;21.22;100.00
4449;BME280;2237;51.870;6.160;2023-08-20T03:06:27;101980.22;;;21.26;100.00
4449;BME280;2237;51.870;6.160;2023-08-20T03:08:53;101975.69;;;21.28;100.00
4449;BME280;2237;51.870;6.160;2023-08-20T03:11:20;101979.19;;;21.29;100.00
4449;BME280;2237;51.870;6.160;2023-08-20T03:13:46;101973.03;;;21.28;100.00
4449;BME280;2237;51.870;6.160;2023-08-20T03:16:12;101976.59;;;21.27;100.00
4449;BME280;2237;51.870;6.160;2023-08-20T03:18:39;101981.06;;;21.27;100.00
4449;BME280;2237;51.870;6.160;2023-08-20T03:21:05;101976.78;;;21.24;100.00
4449;BME280;2237;51.870;6.160;2023-08-20T03:23:32;101967.16;;;21.22;100.00
4449;BME280;2237;51.870;6.160;2023-08-20T03:25:58;101968.91;;;21.23;100.00
4449;BME280;2237;51.870;6.160;2023-08-20T03:28:25;101964.53;;;21.22;100.00
4449;BME280;2237;51.870;6.160;2023-08-20T03:30:51;101965.63;;;21.18;100.00
4449;BME280;2237;51.870;6.160;2023-08-20T03:33:18;101963.88;;;21.17;100.00
4449;BME280;2237;51.870;6.160;2023-08-20T03:35:45;101955.31;;;21.12;100.00
4449;BME280;2237;51.870;6.160;2023-08-20T03:38:12;101951.13;;;21.06;100.00
4449;BME280;2237;51.870;6.160;2023-08-20T03:40:38;101952.81;;;21.09;100.00
4449;BME280;2237;51.870;6.160;2023-08-20T03:43:05;101952.00;;;21.07;100.00
4449;BME280;2237;51.870;6.160;2023-08-20T03:45:31;101955.72;;;21.03;100.00
4449;BME280;2237;51.870;6.160;2023-08-20T03:47:57;101946.84;;;21.04;100.00
4449;BME280;2237;51.870;6.160;2023-08-20T03:50:24;101949.41;;;21.05;100.00
4449;BME280;2237;51.870;6.160;2023-08-20T03:52:50;101953.84;;;21.05;100.00
4449;BME280;2237;51.870;6.160;2023-08-20T03:55:17;101957.59;;;21.01;100.00
4449;BME280;2237;51.870;6.160;2023-08-20T03:57:43;101964.59;;;21.02;100.00
4449;BME280;2237;51.870;6.160;2023-08-20T04:00:10;101959.91;;;20.90;100.00
4449;BME280;2237;51.870;6.160;2023-08-20T04:02:38;101976.00;;;20.46;100.00
4449;BME280;2237;51.870;6.160;2023-08-20T04:05:05;101992.38;;;20.36;100.00
4449;BME280;2237;51.870;6.160;2023-08-20T04:07:31;101983.31;;;20.41;100.00
4449;BME280;2237;51.870;6.160;2023-08-20T04:09:57;101995.88;;;20.36;100.00
4449;BME280;2237;51.870;6.160;2023-08-20T04:12:24;101996.81;;;20.35;100.00
4449;BME280;2237;51.870;6.160;2023-08-20T04:14:50;101994.97;;;20.37;100.00
4449;BME280;2237;51.870;6.160;2023-08-20T04:17:17;101991.09;;;20.44;100.00
4449;BME280;2237;51.870;6.160;2023-08-20T04:19:43;101997.31;;;20.23;100.00
4449;BME280;2237;51.870;6.160;2023-08-20T04:22:10;102003.31;;;20.28;100.00
4449;BME280;2237;51.870;6.160;2023-08-20T04:24:36;102003.03;;;20.34;100.00
4449;BME280;2237;51.870;6.160;2023-08-20T04:27:03;101999.44;;;20.35;100.00
4449;BME280;2237;51.870;6.160;2023-08-20T04:29:29;102003.59;;;20.41;100.00
4449;BME280;2237;51.870;6.160;2023-08-20T04:31:56;101994.66;;;20.43;100.00
4449;BME280;2237;51.870;6.160;2023-08-20T04:34:22;101995.25;;;20.50;100.00
4449;BME280;2237;51.870;6.160;2023-08-20T04:36:48;101997.78;;;20.53;100.00
4449;BME280;2237;51.870;6.160;2023-08-20T04:39:15;101995.06;;;20.54;100.00
4449;BME280;2237;51.870;6.160;2023-08-20T04:41:41;101994.06;;;20.57;100.00
4449;BME280;2237;51.870;6.160;2023-08-20T04:44:07;101994.06;;;20.57;100.00
4449;BME280;2237;51.870;6.160;2023-08-20T04:46:34;102001.94;;;20.58;100.00
4449;BME280;2237;51.870;6.160;2023-08-20T04:49:00;102001.78;;;20.61;100.00
4449;BME280;2237;51.870;6.160;2023-08-20T04:51:27;102005.38;;;20.60;100.00
4449;BME280;2237;51.870;6.160;2023-08-20T04:53:53;102007.22;;;20.58;100.00
4449;BME280;2237;51.870;6.160;2023-08-20T04:56:19;102008.03;;;20.60;100.00
4449;BME280;2237;51.870;6.160;2023-08-20T04:58:46;102013.19;;;20.63;100.00
4449;BME280;2237;51.870;6.160;2023-08-20T05:01:12;102011.25;;;20.67;100.00
4449;BME280;2237;51.870;6.160;2023-08-20T05:03:39;102019.22;;;20.47;100.00
4449;BME280;2237;51.870;6.160;2023-08-20T05:06:05;102017.19;;;20.33;100.00
4449;BME280;2237;51.870;6.160;2023-08-20T05:08:32;102028.50;;;20.37;100.00
4449;BME280;2237;51.870;6.160;2023-08-20T05:10:58;102023.78;;;20.43;100.00
4449;BME280;2237;51.870;6.160;2023-08-20T05:13:25;102024.31;;;20.51;100.00
4449;BME280;2237;51.870;6.160;2023-08-20T05:15:51;102018.81;;;20.56;100.00
4449;BME280;2237;51.870;6.160;2023-08-20T05:18:17;102015.16;;;20.58;100.00
4449;BME280;2237;51.870;6.160;2023-08-20T05:20:44;102021.97;;;20.64;100.00
4449;BME280;2237;51.870;6.160;2023-08-20T05:23:10;102019.13;;;20.68;100.00
4449;BME280;2237;51.870;6.160;2023-08-20T05:25:37;102029.34;;;20.76;100.00
4449;BME280;2237;51.870;6.160;2023-08-20T05:28:03;102023.00;;;20.80;100.00
4449;BME280;2237;51.870;6.160;2023-08-20T05:30:30;102024.50;;;20.85;100.00
4449;BME280;2237;51.870;6.160;2023-08-20T05:32:56;102031.31;;;20.91;100.00
4449;BME280;2237;51.870;6.160;2023-08-20T05:35:23;102039.97;;;20.95;100.00
4449;BME280;2237;51.870;6.160;2023-08-20T05:37:49;102036.31;;;20.97;100.00
4449;BME280;2237;51.870;6.160;2023-08-20T05:40:15;102040.72;;;20.98;100.00
4449;BME280;2237;51.870;6.160;2023-08-20T05:42:42;102037.84;;;21.03;100.00
4449;BME280;2237;51.870;6.160;2023-08-20T05:45:09;102045.53;;;21.09;100.00
4449;BME280;2237;51.870;6.160;2023-08-20T05:47:35;102042.59;;;21.15;100.00
4449;BME280;2237;51.870;6.160;2023-08-20T05:50:03;102050.16;;;21.22;100.00
4449;BME280;2237;51.870;6.160;2023-08-20T05:52:29;102043.72;;;21.28;100.00
4449;BME280;2237;51.870;6.160;2023-08-20T05:54:56;102049.69;;;21.33;100.00
4449;BME280;2237;51.870;6.160;2023-08-20T05:57:22;102048.44;;;21.40;100.00
4449;BME280;2237;51.870;6.160;2023-08-20T05:59:49;102043.91;;;21.42;100.00
4449;BME280;2237;51.870;6.160;2023-08-20T06:02:16;102043.78;;;21.45;100.00
4449;BME280;2237;51.870;6.160;2023-08-20T06:04:44;102042.78;;;21.48;100.00
4449;BME280;2237;51.870;6.160;2023-08-20T06:07:10;102050.50;;;21.52;100.00
4449;BME280;2237;51.870;6.160;2023-08-20T06:09:37;102045.13;;;21.54;100.00
4449;BME280;2237;51.870;6.160;2023-08-20T06:12:04;102052.25;;;21.53;100.00
4449;BME280;2237;51.870;6.160;2023-08-20T06:14:30;102054.06;;;21.51;100.00
4449;BME280;2237;51.870;6.160;2023-08-20T06:16:56;102046.41;;;21.45;100.00
4449;BME280;2237;51.870;6.160;2023-08-20T06:19:23;102051.72;;;21.45;100.00
4449;BME280;2237;51.870;6.160;2023-08-20T06:21:49;102050.56;;;21.51;100.00
4449;BME280;2237;51.870;6.160;2023-08-20T06:24:16;102053.63;;;21.60;100.00
4449;BME280;2237;51.870;6.160;2023-08-20T06:26:42;102048.75;;;21.70;100.00
4449;BME280;2237;51.870;6.160;2023-08-20T06:29:11;102053.91;;;21.73;100.00
4449;BME280;2237;51.870;6.160;2023-08-20T06:31:37;102053.19;;;21.69;100.00
4449;BME280;2237;51.870;6.160;2023-08-20T06:34:03;102054.22;;;21.67;100.00
4449;BME280;2237;51.870;6.160;2023-08-20T06:36:30;102055.78;;;21.71;100.00
4449;BME280;2237;51.870;6.160;2023-08-20T06:38:56;102048.22;;;21.80;100.00
4449;BME280;2237;51.870;6.160;2023-08-20T06:41:23;102056.78;;;21.85;100.00
4449;BME280;2237;51.870;6.160;2023-08-20T06:43:49;102057.38;;;21.92;100.00
4449;BME280;2237;51.870;6.160;2023-08-20T06:46:15;102056.47;;;21.93;100.00
4449;BME280;2237;51.870;6.160;2023-08-20T06:48:42;102057.19;;;21.97;100.00
4449;BME280;2237;51.870;6.160;2023-08-20T06:51:12;102056.38;;;21.94;100.00
4449;BME280;2237;51.870;6.160;2023-08-20T06:53:39;102053.72;;;21.94;100.00
4449;BME280;2237;51.870;6.160;2023-08-20T06:56:10;102054.84;;;22.08;100.00
4449;BME280;2237;51.870;6.160;2023-08-20T06:58:40;102051.22;;;22.09;100.00
4449;BME280;2237;51.870;6.160;2023-08-20T07:01:07;102054.59;;;21.95;100.00
4449;BME280;2237;51.870;6.160;2023-08-20T07:03:40;102059.31;;;21.88;100.00
4449;BME280;2237;51.870;6.160;2023-08-20T07:06:08;102057.47;;;21.90;100.00
4449;BME280;2237;51.870;6.160;2023-08-20T07:08:38;102056.72;;;22.06;100.00
4449;BME280;2237;51.870;6.160;2023-08-20T07:11:07;102056.16;;;21.99;100.00
4449;BME280;2237;51.870;6.160;2023-08-20T07:13:34;102057.19;;;21.97;100.00
4449;BME280;2237;51.870;6.160;2023-08-20T07:16:00;102055.75;;;22.07;100.00
4449;BME280;2237;51.870;6.160;2023-08-20T07:18:27;102058.50;;;22.05;100.00
4449;BME280;2237;51.870;6.160;2023-08-20T07:20:54;102058.25;;;22.10;100.00
4449;BME280;2237;51.870;6.160;2023-08-20T07:23:21;102061.16;;;22.22;100.00
4449;BME280;2237;51.870;6.160;2023-08-20T07:25:48;102053.03;;;22.25;100.00
4449;BME280;2237;51.870;6.160;2023-08-20T07:28:14;102054.53;;;22.31;100.00
4449;BME280;2237;51.870;6.160;2023-08-20T07:30:41;102065.03;;;22.32;100.00
4449;BME280;2237;51.870;6.160;2023-08-20T07:33:07;102056.75;;;22.38;100.00
4449;BME280;2237;51.870;6.160;2023-08-20T07:35:34;102058.41;;;22.41;100.00
4449;BME280;2237;51.870;6.160;2023-08-20T07:38:01;102060.72;;;22.47;100.00
4449;BME280;2237;51.870;6.160;2023-08-20T07:40:28;102062.75;;;22.59;100.00
4449;BME280;2237;51.870;6.160;2023-08-20T07:42:54;102068.72;;;22.64;100.00
4449;BME280;2237;51.870;6.160;2023-08-20T07:45:22;102064.19;;;22.66;100.00
4449;BME280;2237;51.870;6.160;2023-08-20T07:47:49;102068.38;;;22.70;100.00
4449;BME280;2237;51.870;6.160;2023-08-20T07:50:15;102063.22;;;22.67;100.00
4449;BME280;2237;51.870;6.160;2023-08-20T07:52:42;102065.03;;;22.67;100.00
4449;BME280;2237;51.870;6.160;2023-08-20T07:55:08;102048.38;;;22.63;100.00
4449;BME280;2237;51.870;6.160;2023-08-20T07:57:34;102060.41;;;22.70;100.00
4449;BME280;2237;51.870;6.160;2023-08-20T08:00:01;102066.53;;;22.72;100.00
4449;BME280;2237;51.870;6.160;2023-08-20T08:02:30;102068.66;;;22.81;100.00
4449;BME280;2237;51.870;6.160;2023-08-20T08:04:56;102064.47;;;23.10;100.00
4449;BME280;2237;51.870;6.160;2023-08-20T08:07:23;102066.50;;;23.21;100.00
4449;BME280;2237;51.870;6.160;2023-08-20T08:09:49;102062.94;;;23.22;100.00
4449;BME280;2237;51.870;6.160;2023-08-20T08:12:16;102056.31;;;23.29;100.00
4449;BME280;2237;51.870;6.160;2023-08-20T08:14:42;102065.97;;;23.14;100.00
4449;BME280;2237;51.870;6.160;2023-08-20T08:17:08;102069.00;;;23.24;100.00
4449;BME280;2237;51.870;6.160;2023-08-20T08:19:35;102077.38;;;23.16;100.00
4449;BME280;2237;51.870;6.160;2023-08-20T08:22:01;102073.53;;;23.06;100.00
4449;BME280;2237;51.870;6.160;2023-08-20T08:24:29;102083.31;;;23.21;100.00
4449;BME280;2237;51.870;6.160;2023-08-20T08:26:55;102084.53;;;23.16;100.00
4449;BME280;2237;51.870;6.160;2023-08-20T08:29:21;102083.38;;;23.20;100.00
4449;BME280;2237;51.870;6.160;2023-08-20T08:31:48;102090.50;;;23.19;100.00
4449;BME280;2237;51.870;6.160;2023-08-20T08:34:14;102091.09;;;23.08;100.00
4449;BME280;2237;51.870;6.160;2023-08-20T08:36:41;102088.81;;;23.18;100.00
4449;BME280;2237;51.870;6.160;2023-08-20T08:39:07;102093.34;;;23.32;100.00
4449;BME280;2237;51.870;6.160;2023-08-20T08:41:35;102092.44;;;23.33;100.00
4449;BME280;2237;51.870;6.160;2023-08-20T08:44:02;102089.47;;;23.39;100.00
4449;BME280;2237;51.870;6.160;2023-08-20T08:46:29;102092.28;;;23.51;100.00
4449;BME280;2237;51.870;6.160;2023-08-20T08:48:56;102098.69;;;23.63;100.00
4449;BME280;2237;51.870;6.160;2023-08-20T08:51:23;102094.94;;;23.67;100.00
4449;BME280;2237;51.870;6.160;2023-08-20T08:53:50;102101.19;;;23.66;100.00
4449;BME280;2237;51.870;6.160;2023-08-20T08:56:16;102104.25;;;23.74;100.00
4449;BME280;2237;51.870;6.160;2023-08-20T08:58:43;102101.81;;;23.71;100.00
4449;BME280;2237;51.870;6.160;2023-08-20T09:01:09;102095.53;;;23.72;100.00
4449;BME280;2237;51.870;6.160;2023-08-20T09:03:36;102094.31;;;23.78;100.00
4449;BME280;2237;51.870;6.160;2023-08-20T09:06:08;102098.88;;;23.60;100.00
4449;BME280;2237;51.870;6.160;2023-08-20T09:08:36;102093.81;;;23.71;100.00
4449;BME280;2237;51.870;6.160;2023-08-20T09:11:02;102089.66;;;23.97;100.00
4449;BME280;2237;51.870;6.160;2023-08-20T09:13:36;102096.78;;;23.96;100.00
4449;BME280;2237;51.870;6.160;2023-08-20T09:16:07;102095.56;;;24.02;100.00
4449;BME280;2237;51.870;6.160;2023-08-20T09:18:40;102106.22;;;24.17;100.00
4449;BME280;2237;51.870;6.160;2023-08-20T09:21:08;102103.34;;;24.21;100.00
4449;BME280;2237;51.870;6.160;2023-08-20T09:23:35;102095.28;;;24.06;100.00
4449;BME280;2237;51.870;6.160;2023-08-20T09:26:03;102092.81;;;24.03;100.00
4449;BME280;2237;51.870;6.160;2023-08-20T09:28:40;102092.63;;;24.22;100.00
4449;BME280;2237;51.870;6.160;2023-08-20T09:31:07;102098.41;;;24.14;100.00
4449;BME280;2237;51.870;6.160;2023-08-20T09:33:37;102096.59;;;24.15;100.00
4449;BME280;2237;51.870;6.160;2023-08-20T09:36:14;102088.69;;;24.43;100.00
4449;BME280;2237;51.870;6.160;2023-08-20T09:38:41;102092.31;;;24.56;100.00
4449;BME280;2237;51.870;6.160;2023-08-20T09:41:08;102097.56;;;24.58;100.00
4449;BME280;2237;51.870;6.160;2023-08-20T09:43:38;102096.78;;;24.56;100.00
4449;BME280;2237;51.870;6.160;2023-08-20T09:46:05;102093.13;;;24.72;100.00
4449;BME280;2237;51.870;6.160;2023-08-20T09:48:38;102098.91;;;24.79;100.00
4449;BME280;2237;51.870;6.160;2023-08-20T09:51:05;102095.50;;;24.91;100.00
4449;BME280;2237;51.870;6.160;2023-08-20T09:53:39;102089.72;;;24.99;100.00
4449;BME280;2237;51.870;6.160;2023-08-20T09:56:20;102102.00;;;24.87;100.00
4449;BME280;2237;51.870;6.160;2023-08-20T09:58:48;102094.00;;;24.87;100.00
4449;BME280;2237;51.870;6.160;2023-08-20T10:01:15;102105.59;;;25.00;100.00
4449;BME280;2237;51.870;6.160;2023-08-20T10:03:41;102102.38;;;25.09;100.00
4449;BME280;2237;51.870;6.160;2023-08-20T10:06:09;102102.63;;;25.05;100.00
4449;BME280;2237;51.870;6.160;2023-08-20T10:08:37;102111.31;;;25.08;100.00
4449;BME280;2237;51.870;6.160;2023-08-20T10:11:04;102113.03;;;24.95;100.00
4449;BME280;2237;51.870;6.160;2023-08-20T10:13:30;102115.31;;;25.01;100.00
4449;BME280;2237;51.870;6.160;2023-08-20T10:15:57;102108.84;;;24.91;98.30
4449;BME280;2237;51.870;6.160;2023-08-20T10:18:24;102106.53;;;25.13;99.17
4449;BME280;2237;51.870;6.160;2023-08-20T10:20:51;102102.84;;;25.16;91.66
4449;BME280;2237;51.870;6.160;2023-08-20T10:23:21;102106.75;;;25.24;88.64
4449;BME280;2237;51.870;6.160;2023-08-20T10:25:52;102109.28;;;25.40;91.03
4449;BME280;2237;51.870;6.160;2023-08-20T10:28:25;102118.34;;;25.52;90.06
4449;BME280;2237;51.870;6.160;2023-08-20T10:31:07;102121.78;;;25.54;84.86
4449;BME280;2237;51.870;6.160;2023-08-20T10:33:35;102112.34;;;25.48;81.46
4449;BME280;2237;51.870;6.160;2023-08-20T10:36:15;102108.41;;;25.68;85.86
4449;BME280;2237;51.870;6.160;2023-08-20T10:38:44;102116.50;;;25.66;77.14
4449;BME280;2237;51.870;6.160;2023-08-20T10:41:11;102110.28;;;25.80;80.35
4449;BME280;2237;51.870;6.160;2023-08-20T10:43:45;102110.50;;;25.90;74.91
4449;BME280;2237;51.870;6.160;2023-08-20T10:46:19;102112.50;;;25.86;66.82
4449;BME280;2237;51.870;6.160;2023-08-20T10:48:57;102110.16;;;25.81;74.42
4449;BME280;2237;51.870;6.160;2023-08-20T10:57:14;102109.28;;;26.08;71.05
4449;BME280;2237;51.870;6.160;2023-08-20T10:59:33;102116.19;;;25.98;68.70
4449;BME280;2237;51.870;6.160;2023-08-20T11:02:00;102112.69;;;26.10;68.44
4449;BME280;2237;51.870;6.160;2023-08-20T11:04:31;102106.69;;;26.20;65.79
4449;BME280;2237;51.870;6.160;2023-08-20T11:07:01;102113.94;;;26.18;64.13
4449;BME280;2237;51.870;6.160;2023-08-20T11:09:29;102121.13;;;26.30;59.79
4449;BME280;2237;51.870;6.160;2023-08-20T11:11:56;102118.25;;;26.33;61.11
4449;BME280;2237;51.870;6.160;2023-08-20T11:14:23;102118.69;;;26.40;60.18
4449;BME280;2237;51.870;6.160;2023-08-20T11:16:49;102113.09;;;26.30;59.40
4449;BME280;2237;51.870;6.160;2023-08-20T11:19:23;102121.59;;;26.50;56.60
4449;BME280;2237;51.870;6.160;2023-08-20T11:21:51;102115.16;;;26.39;56.88
4449;BME280;2237;51.870;6.160;2023-08-20T11:24:17;102111.03;;;26.61;56.38
4449;BME280;2237;51.870;6.160;2023-08-20T11:26:46;102123.69;;;26.84;54.47
4449;BME280;2237;51.870;6.160;2023-08-20T11:29:14;102121.28;;;26.67;51.48
4449;BME280;2237;51.870;6.160;2023-08-20T11:31:45;102116.13;;;26.76;53.97
4449;BME280;2237;51.870;6.160;2023-08-20T11:34:12;102115.31;;;27.01;54.34
4449;BME280;2237;51.870;6.160;2023-08-20T11:36:39;102115.75;;;27.08;50.97
4449;BME280;2237;51.870;6.160;2023-08-20T11:39:07;102112.34;;;26.93;49.55
4449;BME280;2237;51.870;6.160;2023-08-20T11:41:38;102112.88;;;27.11;51.26
4449;BME280;2237;51.870;6.160;2023-08-20T11:44:04;102108.88;;;27.16;48.63
4449;BME280;2237;51.870;6.160;2023-08-20T11:46:31;102100.53;;;27.08;50.48
4449;BME280;2237;51.870;6.160;2023-08-20T11:51:29;102111.44;;;27.18;51.20
4449;BME280;2237;51.870;6.160;2023-08-20T11:53:57;102112.09;;;27.09;49.58
4449;BME280;2237;51.870;6.160;2023-08-20T11:56:23;102113.16;;;27.06;50.49
4449;BME280;2237;51.870;6.160;2023-08-20T11:58:51;102111.22;;;27.08;48.60
4449;BME280;2237;51.870;6.160;2023-08-20T12:01:20;102103.53;;;27.16;49.96
4449;BME280;2237;51.870;6.160;2023-08-20T12:03:46;102099.22;;;27.26;49.96
4449;BME280;2237;51.870;6.160;2023-08-20T12:06:20;102106.97;;;27.55;51.00
4449;BME280;2237;51.870;6.160;2023-08-20T12:08:47;102100.59;;;27.44;47.42
4449;BME280;2237;51.870;6.160;2023-08-20T12:11:13;102096.84;;;27.47;49.80
4449;BME280;2237;51.870;6.160;2023-08-20T12:13:40;102094.94;;;27.36;49.69
4449;BME280;2237;51.870;6.160;2023-08-20T12:16:07;102090.84;;;27.43;48.58
4449;BME280;2237;51.870;6.160;2023-08-20T12:18:33;102085.66;;;27.66;51.29
4449;BME280;2237;51.870;6.160;2023-08-20T12:21:01;102083.31;;;27.61;51.14
4449;BME280;2237;51.870;6.160;2023-08-20T12:23:28;102089.47;;;27.74;51.33
4449;BME280;2237;51.870;6.160;2023-08-20T12:25:55;102076.47;;;27.81;50.03
4449;BME280;2237;51.870;6.160;2023-08-20T12:28:21;102076.81;;;28.00;50.57
4449;BME280;2237;51.870;6.160;2023-08-20T12:30:48;102082.00;;;28.14;49.64
4449;BME280;2237;51.870;6.160;2023-08-20T12:33:15;102076.22;;;27.84;47.98
4449;BME280;2237;51.870;6.160;2023-08-20T12:35:41;102066.06;;;27.89;46.96
4449;BME280;2237;51.870;6.160;2023-08-20T12:38:07;102067.41;;;27.94;48.85
4449;BME280;2237;51.870;6.160;2023-08-20T12:40:34;102070.56;;;28.12;47.95
4449;BME280;2237;51.870;6.160;2023-08-20T12:43:00;102064.28;;;28.35;47.64
4449;BME280;2237;51.870;6.160;2023-08-20T12:45:27;102056.09;;;28.26;47.32
4449;BME280;2237;51.870;6.160;2023-08-20T12:47:53;102057.47;;;28.42;46.85
4449;BME280;2237;51.870;6.160;2023-08-20T12:50:20;102057.41;;;28.20;48.85
4449;BME280;2237;51.870;6.160;2023-08-20T12:52:46;102054.38;;;28.36;47.51
4449;BME280;2237;51.870;6.160;2023-08-20T12:55:15;102055.53;;;28.55;46.70
4449;BME280;2237;51.870;6.160;2023-08-20T12:58:01;102050.44;;;28.86;47.03
4449;BME280;2237;51.870;6.160;2023-08-20T13:00:28;102051.53;;;28.94;46.22
4449;BME280;2237;51.870;6.160;2023-08-20T13:02:55;102057.63;;;28.85;46.21
4449;BME280;2237;51.870;6.160;2023-08-20T13:05:23;102066.53;;;28.75;44.95
4449;BME280;2237;51.870;6.160;2023-08-20T13:07:50;102060.94;;;28.67;44.80
4449;BME280;2237;51.870;6.160;2023-08-20T13:10:17;102066.75;;;28.60;46.59
4449;BME280;2237;51.870;6.160;2023-08-20T13:12:51;102071.44;;;28.70;45.89
4449;BME280;2237;51.870;6.160;2023-08-20T13:15:21;102068.25;;;28.65;44.83
4449;BME280;2237;51.870;6.160;2023-08-20T13:17:49;102076.06;;;28.79;45.39
4449;BME280;2237;51.870;6.160;2023-08-20T13:20:16;102068.88;;;28.90;45.62